CH-0002 weather

Altiport de Croix de Coeur
Canton of Valais, Switzerland

Public forecast

Using degrees Celsius for public forecast. Weather courtesy of forecast.io.

METAR (pilot weather report)

Closest report is Sion Airport, 6.9 nm (12.9 km) NNE. Retrieved 2019/09/19 05:20 UTC (0 seconds ago):

LSGS 190520Z 26005KT 9999 SCT030 OVC050 15/11 Q1020

TAF (pilot weather forecast)

Forecast is more than 12 hours old.

Closest forecast is Payerne Air Base, 45.2 nm (83.7 km) NNW. Retrieved 2019/09/18 10:00 UTC (19 hours ago):

TAF LSMP 180925Z 1810/1916 04012KT 9999 SCT030